Time;durP1;ratioP1;P1;durP2;ratioP2;P2;SDS_P1;SDS_P2;PMS_P1;PMS_P2;Temp;Humidity;BMP_temperature;BMP_pressure;BME280_temperature;BME280_humidity;BME280_pressure;Samples;Min_cycle;Max_cycle;Signal;HPM_P1;HPM_P2
2023/06/20 00:02:00;;;;;;;27.45;19.67;;;;;;;;;;4961966;28;20053;-90
2023/06/20 00:04:26;;;;;;;27.08;18.48;;;;;;;;;;4972439;28;20042;-90
2023/06/20 00:06:52;;;;;;;28.15;20.23;;;;;;;;;;4976524;28;20080;-89
2023/06/20 00:09:18;;;;;;;28.70;19.95;;;;;;;;;;4974399;28;20042;-90
2023/06/20 00:11:44;;;;;;;30.25;20.60;;;;;;;;;;4960029;28;20046;-88
2023/06/20 00:14:12;;;;;;;28.30;20.77;;;;;;;;;;4956763;28;20561;-87
2023/06/20 00:16:38;;;;;;;24.02;19.35;;;;;;;;;;4963948;28;20042;-88
2023/06/20 00:19:04;;;;;;;27.63;20.25;;;;;;;;;;4976020;28;20043;-88
2023/06/20 00:21:30;;;;;;;26.90;19.60;;;;;;;;;;4976697;28;20080;-87
2023/06/20 00:23:56;;;;;;;29.00;19.95;;;;;;;;;;4966668;28;20458;-87
2023/06/20 00:26:22;;;;;;;26.20;18.98;;;;;;;;;;4965753;28;20445;-88
2023/06/20 00:28:52;;;;;;;23.15;18.48;;;;;;;;;;4967347;28;20042;-88
2023/06/20 00:31:18;;;;;;;23.50;18.23;;;;;;;;;;4977837;28;20076;-89
2023/06/20 00:33:44;;;;;;;23.70;17.17;;;;;;;;;;4966956;28;20039;-88
2023/06/20 00:36:10;;;;;;;22.77;16.98;;;;;;;;;;4965862;28;20761;-87
2023/06/20 00:38:36;;;;;;;22.60;16.42;;;;;;;;;;4963794;28;20437;-89
2023/06/20 00:41:02;;;;;;;23.45;16.48;;;;;;;;;;4963213;28;20049;-87
2023/06/20 00:43:28;;;;;;;22.27;16.90;;;;;;;;;;4964601;28;20062;-88
2023/06/20 00:45:56;;;;;;;20.92;15.95;;;;;;;;;;4981171;28;20074;-87
2023/06/20 00:48:22;;;;;;;20.95;16.65;;;;;;;;;;4962254;28;20702;-88
2023/06/20 00:50:48;;;;;;;21.42;16.33;;;;;;;;;;4978204;28;20125;-87
2023/06/20 00:53:14;;;;;;;21.08;16.23;;;;;;;;;;4971302;28;20151;-89
2023/06/20 00:55:40;;;;;;;19.27;16.20;;;;;;;;;;4962377;28;20158;-88
2023/06/20 00:58:06;;;;;;;22.55;15.85;;;;;;;;;;4978202;28;20142;-88
2023/06/20 01:00:33;;;;;;;21.98;16.10;;;;;;;;;;4975923;28;20054;-88
2023/06/20 01:03:01;;;;;;;20.83;16.23;;;;;;;;;;4978157;28;20505;-88
2023/06/20 01:05:29;;;;;;;22.25;15.45;;;;;;;;;;4976324;28;20047;-87
2023/06/20 01:08:00;;;;;;;20.80;15.75;;;;;;;;;;4961324;28;20441;-88
2023/06/20 01:10:29;;;;;;;21.05;15.90;;;;;;;;;;4971576;28;20100;-88
2023/06/20 01:12:59;;;;;;;22.70;15.02;;;;;;;;;;4961278;28;20077;-88
2023/06/20 01:15:31;;;;;;;21.00;15.25;;;;;;;;;;4967096;28;20042;-88
2023/06/20 01:18:05;;;;;;;21.88;15.75;;;;;;;;;;4984959;28;20115;-90
2023/06/20 01:20:33;;;;;;;23.85;14.75;;;;;;;;;;4961215;28;20078;-88
2023/06/20 01:23:02;;;;;;;20.42;16.15;;;;;;;;;;4974859;28;20042;-88
2023/06/20 01:25:53;;;;;;;20.13;16.17;;;;;;;;;;4979992;28;20494;-88
2023/06/20 01:28:28;;;;;;;24.00;16.55;;;;;;;;;;4959839;28;20043;-88
2023/06/20 01:30:59;;;;;;;21.42;17.25;;;;;;;;;;4976564;28;20082;-88
2023/06/20 01:33:29;;;;;;;22.60;16.73;;;;;;;;;;4978318;28;20105;-89
2023/06/20 01:35:56;;;;;;;23.48;17.40;;;;;;;;;;4998913;28;20049;-88
2023/06/20 01:38:24;;;;;;;21.35;16.63;;;;;;;;;;4975569;28;20050;-88
2023/06/20 01:40:51;;;;;;;23.52;17.95;;;;;;;;;;4974400;28;20052;-89
2023/06/20 01:43:19;;;;;;;24.77;17.83;;;;;;;;;;4975477;28;20039;-88
2023/06/20 01:45:47;;;;;;;23.15;17.83;;;;;;;;;;4976037;28;20137;-88
2023/06/20 01:48:14;;;;;;;23.58;17.20;;;;;;;;;;4976073;28;20057;-88
2023/06/20 01:50:40;;;;;;;26.05;17.92;;;;;;;;;;4955807;28;20055;-89
2023/06/20 01:53:08;;;;;;;23.35;17.85;;;;;;;;;;4975549;28;20052;-89
2023/06/20 01:55:34;;;;;;;24.83;18.92;;;;;;;;;;4960556;28;20437;-90
2023/06/20 01:58:01;;;;;;;25.83;17.27;;;;;;;;;;4976679;28;20565;-89
2023/06/20 02:00:28;;;;;;;22.95;17.77;;;;;;;;;;4974270;28;20085;-89
2023/06/20 02:02:56;;;;;;;23.60;18.55;;;;;;;;;;4976285;28;20042;-88
2023/06/20 02:05:27;;;;;;;23.77;18.80;;;;;;;;;;4965286;28;20165;-89
2023/06/20 02:07:55;;;;;;;25.58;19.02;;;;;;;;;;4959690;28;20500;-88
2023/06/20 02:10:21;;;;;;;;;;;;;;;;;;4974891;28;20102;-90
2023/06/20 02:12:49;;;;;;;25.40;18.98;;;;;;;;;;4975690;28;19990;-88
2023/06/20 02:15:16;;;;;;;30.80;20.38;;;;;;;;;;4974137;28;20133;-89
2023/06/20 02:17:43;;;;;;;25.42;19.85;;;;;;;;;;4965153;28;20085;-89
2023/06/20 02:20:09;;;;;;;24.38;19.10;;;;;;;;;;4976016;28;20494;-89
2023/06/20 02:22:36;;;;;;;25.05;19.77;;;;;;;;;;4964072;28;20038;-88
2023/06/20 02:25:06;;;;;;;22.85;20.33;;;;;;;;;;4979557;28;20047;-89
2023/06/20 02:27:32;;;;;;;24.77;19.92;;;;;;;;;;4979961;28;20330;-89
2023/06/20 02:30:00;;;;;;;29.90;21.20;;;;;;;;;;4974968;28;20080;-89
2023/06/20 02:32:26;;;;;;;26.05;21.15;;;;;;;;;;4979419;28;20351;-89
2023/06/20 02:34:54;;;;;;;30.48;21.80;;;;;;;;;;4976489;28;20076;-88
2023/06/20 02:37:22;;;;;;;26.27;21.20;;;;;;;;;;4975954;28;20047;-89
2023/06/20 02:39:49;;;;;;;27.45;21.52;;;;;;;;;;4971614;28;20572;-87
2023/06/20 02:42:15;;;;;;;27.02;21.52;;;;;;;;;;4981398;28;20066;-88
2023/06/20 02:44:41;;;;;;;28.77;21.60;;;;;;;;;;4977650;28;20100;-88
2023/06/20 02:47:07;;;;;;;27.27;20.88;;;;;;;;;;4964321;28;20043;-89
2023/06/20 02:49:51;;;;;;;25.33;20.83;;;;;;;;;;4978015;28;20057;-89
2023/06/20 02:52:20;;;;;;;33.08;22.00;;;;;;;;;;4966785;28;20038;-88
2023/06/20 02:55:03;;;;;;;29.55;21.42;;;;;;;;;;4976233;28;20061;-89
2023/06/20 02:57:31;;;;;;;28.98;21.60;;;;;;;;;;4970322;28;20099;-89
2023/06/20 03:00:09;;;;;;;29.40;21.67;;;;;;;;;;4976751;28;20050;-88
2023/06/20 03:02:35;;;;;;;28.42;21.92;;;;;;;;;;4976928;28;20065;-89
2023/06/20 03:05:04;;;;;;;30.30;20.92;;;;;;;;;;4999385;28;20050;-88
2023/06/20 03:07:33;;;;;;;27.65;21.13;;;;;;;;;;4977479;28;20050;-89
2023/06/20 03:10:01;;;;;;;27.10;22.17;;;;;;;;;;4980144;28;20054;-89
2023/06/20 03:12:27;;;;;;;29.70;21.90;;;;;;;;;;4978719;28;20042;-89
2023/06/20 03:14:53;;;;;;;29.15;22.58;;;;;;;;;;4978629;28;20338;-89
2023/06/20 03:17:19;;;;;;;30.00;21.90;;;;;;;;;;4979687;28;20042;-89
2023/06/20 03:19:45;;;;;;;29.88;22.77;;;;;;;;;;4977481;28;20069;-89
2023/06/20 03:22:11;;;;;;;30.30;23.17;;;;;;;;;;4963505;28;20532;-88
2023/06/20 03:24:38;;;;;;;29.25;22.02;;;;;;;;;;4964179;28;20398;-89
2023/06/20 03:27:04;;;;;;;31.52;23.00;;;;;;;;;;4967247;28;20038;-90
2023/06/20 03:29:30;;;;;;;30.25;23.38;;;;;;;;;;4976568;28;20046;-90
2023/06/20 03:31:56;;;;;;;34.05;23.00;;;;;;;;;;4964666;28;20378;-89
2023/06/20 03:34:22;;;;;;;29.00;23.45;;;;;;;;;;4966008;28;20049;-90
2023/06/20 03:36:48;;;;;;;29.73;23.92;;;;;;;;;;4965390;28;20394;-88
2023/06/20 03:39:14;;;;;;;31.95;24.33;;;;;;;;;;4978729;28;20041;-88
2023/06/20 03:41:40;;;;;;;28.65;23.58;;;;;;;;;;4963721;28;20474;-87
2023/06/20 03:44:06;;;;;;;29.90;24.27;;;;;;;;;;4981094;28;20061;-89
2023/06/20 03:46:32;;;;;;;30.65;22.98;;;;;;;;;;4963181;28;20050;-87
2023/06/20 03:48:58;;;;;;;28.27;22.80;;;;;;;;;;4979682;28;20046;-88
2023/06/20 03:51:26;;;;;;;31.10;23.75;;;;;;;;;;4963827;28;20573;-88
2023/06/20 03:53:52;;;;;;;;;;;;;;;;;;4958977;28;20088;-88
2023/06/20 03:56:18;;;;;;;32.47;23.92;;;;;;;;;;4976310;28;20026;-89
2023/06/20 03:58:45;;;;;;;31.15;22.05;;;;;;;;;;4973954;28;20666;-89
2023/06/20 04:01:11;;;;;;;29.63;22.50;;;;;;;;;;4974398;28;20076;-90
2023/06/20 04:03:37;;;;;;;31.30;22.95;;;;;;;;;;4976968;28;20074;-90
2023/06/20 04:06:03;;;;;;;31.63;22.20;;;;;;;;;;4964710;28;20142;-87
2023/06/20 04:08:29;;;;;;;32.05;23.70;;;;;;;;;;4976792;28;20057;-90
2023/06/20 04:10:56;;;;;;;28.15;22.05;;;;;;;;;;4977443;28;20393;-89
2023/06/20 04:13:22;;;;;;;31.13;22.60;;;;;;;;;;4959086;28;20042;-88
2023/06/20 04:15:48;;;;;;;32.33;22.95;;;;;;;;;;4976047;28;21498;-89
2023/06/20 04:18:14;;;;;;;28.25;21.92;;;;;;;;;;4976253;28;20059;-89
2023/06/20 04:20:44;;;;;;;29.02;23.23;;;;;;;;;;4975716;28;20050;-89
2023/06/20 04:23:13;;;;;;;26.52;22.10;;;;;;;;;;4973602;28;20068;-89
2023/06/20 04:25:39;;;;;;;26.55;22.00;;;;;;;;;;4993057;28;20450;-89
2023/06/20 04:28:05;;;;;;;28.38;21.50;;;;;;;;;;4971414;28;20042;-88
2023/06/20 04:30:31;;;;;;;29.73;21.67;;;;;;;;;;4995709;28;20046;-89
2023/06/20 04:32:57;;;;;;;23.60;19.88;;;;;;;;;;4974251;28;20051;-89
2023/06/20 04:35:23;;;;;;;24.75;19.40;;;;;;;;;;4979322;28;20040;-90
2023/06/20 04:37:51;;;;;;;27.70;20.27;;;;;;;;;;4977428;28;20038;-88
2023/06/20 04:40:17;;;;;;;26.05;19.92;;;;;;;;;;4984823;28;20197;-88
2023/06/20 04:42:45;;;;;;;33.13;19.92;;;;;;;;;;4979185;28;20057;-88
2023/06/20 04:45:11;;;;;;;29.42;18.77;;;;;;;;;;4960843;28;20407;-88
2023/06/20 04:47:37;;;;;;;25.40;19.30;;;;;;;;;;4969097;28;20054;-88
2023/06/20 04:50:03;;;;;;;26.50;19.02;;;;;;;;;;4967002;28;20045;-87
2023/06/20 04:52:30;;;;;;;42.22;18.63;;;;;;;;;;4974679;28;20038;-87
2023/06/20 04:55:02;;;;;;;26.02;17.58;;;;;;;;;;4963516;28;20481;-92
2023/06/20 04:57:32;;;;;;;24.20;19.05;;;;;;;;;;4963325;28;20505;-90
2023/06/20 04:59:58;;;;;;;23.05;18.25;;;;;;;;;;4978077;28;20050;-92
2023/06/20 05:02:24;;;;;;;24.83;18.45;;;;;;;;;;4959914;28;20038;-91
2023/06/20 05:04:50;;;;;;;20.92;17.83;;;;;;;;;;4958240;28;20879;-90
2023/06/20 05:07:17;;;;;;;23.50;17.77;;;;;;;;;;4976682;28;20034;-91
2023/06/20 05:09:43;;;;;;;23.55;18.02;;;;;;;;;;4971716;28;20144;-89
2023/06/20 05:12:09;;;;;;;20.88;17.38;;;;;;;;;;4974048;28;20058;-91
2023/06/20 05:14:35;;;;;;;21.98;16.73;;;;;;;;;;4972258;28;20053;-90
2023/06/20 05:17:02;;;;;;;26.33;17.05;;;;;;;;;;4959479;28;20050;-92
2023/06/20 05:19:28;;;;;;;27.70;17.67;;;;;;;;;;4976755;28;20091;-91
2023/06/20 05:21:54;;;;;;;21.08;16.38;;;;;;;;;;4961827;28;20124;-89
2023/06/20 05:24:20;;;;;;;20.98;16.90;;;;;;;;;;4984352;28;20152;-91
2023/06/20 05:26:46;;;;;;;22.20;17.35;;;;;;;;;;4973237;28;20497;-91
2023/06/20 05:29:12;;;;;;;21.85;16.95;;;;;;;;;;4978794;28;20086;-90
2023/06/20 05:31:41;;;;;;;21.13;17.67;;;;;;;;;;4962913;28;20792;-91
2023/06/20 05:34:08;;;;;;;21.15;16.55;;;;;;;;;;4962258;28;20439;-87
2023/06/20 05:36:34;;;;;;;21.13;17.23;;;;;;;;;;4981682;28;20039;-91
2023/06/20 05:39:00;;;;;;;20.83;17.00;;;;;;;;;;4976975;28;20142;-93
2023/06/20 05:41:26;;;;;;;21.23;17.20;;;;;;;;;;4962273;28;20223;-91
2023/06/20 05:43:52;;;;;;;21.55;17.67;;;;;;;;;;4970671;28;20054;-90
2023/06/20 05:46:18;;;;;;;21.48;17.58;;;;;;;;;;4978143;28;20054;-90
2023/06/20 05:48:44;;;;;;;24.80;18.40;;;;;;;;;;5000878;28;20389;-90
2023/06/20 05:51:13;;;;;;;22.58;17.58;;;;;;;;;;4964631;28;20084;-90
2023/06/20 05:53:41;;;;;;;22.10;16.45;;;;;;;;;;4964701;28;20050;-90
2023/06/20 05:56:13;;;;;;;22.98;17.20;;;;;;;;;;4965450;28;20057;-90
2023/06/20 05:58:57;;;;;;;20.40;16.67;;;;;;;;;;4982580;28;20054;-93
2023/06/20 06:01:24;;;;;;;21.02;16.73;;;;;;;;;;4982710;28;20053;-88
2023/06/20 06:03:50;;;;;;;21.45;16.17;;;;;;;;;;4969372;28;20046;-89
2023/06/20 06:06:19;;;;;;;21.75;16.48;;;;;;;;;;4966846;28;20380;-90
2023/06/20 06:08:45;;;;;;;20.38;15.18;;;;;;;;;;4982266;28;20513;-90
2023/06/20 06:11:11;;;;;;;22.15;15.27;;;;;;;;;;4955915;28;20112;-89
2023/06/20 06:13:38;;;;;;;20.60;15.60;;;;;;;;;;4986222;28;20050;-90
2023/06/20 06:16:05;;;;;;;23.35;14.95;;;;;;;;;;4968419;28;20121;-90
2023/06/20 06:18:31;;;;;;;19.25;15.05;;;;;;;;;;4979374;28;20559;-89
2023/06/20 06:20:57;;;;;;;21.45;15.57;;;;;;;;;;4966468;28;20589;-91
2023/06/20 06:23:24;;;;;;;20.25;14.75;;;;;;;;;;4984280;28;20535;-92
2023/06/20 06:25:53;;;;;;;17.15;14.55;;;;;;;;;;4958595;28;20045;-90
2023/06/20 06:28:21;;;;;;;17.67;14.25;;;;;;;;;;4962386;28;20042;-92
2023/06/20 06:30:47;;;;;;;18.10;15.18;;;;;;;;;;4975561;28;20270;-91
2023/06/20 06:33:14;;;;;;;20.83;15.07;;;;;;;;;;4978244;28;20301;-91
2023/06/20 06:35:44;;;;;;;16.80;14.15;;;;;;;;;;4965100;28;20053;-91
2023/06/20 06:38:10;;;;;;;18.98;13.45;;;;;;;;;;4968835;28;20042;-92
2023/06/20 06:40:37;;;;;;;18.23;14.13;;;;;;;;;;4963351;28;20077;-91
2023/06/20 06:43:05;;;;;;;16.08;14.18;;;;;;;;;;4964345;28;20042;-91
2023/06/20 06:45:32;;;;;;;16.70;14.15;;;;;;;;;;4964828;28;20078;-91
2023/06/20 06:48:06;;;;;;;16.95;13.13;;;;;;;;;;4961906;28;20155;-92
2023/06/20 06:50:35;;;;;;;;;;;;;;;;;;4982021;28;20046;-89
2023/06/20 06:53:04;;;;;;;18.90;12.65;;;;;;;;;;4958652;28;20526;-91
2023/06/20 06:55:30;;;;;;;20.20;13.30;;;;;;;;;;4977319;28;21764;-90
2023/06/20 06:57:57;;;;;;;15.57;12.98;;;;;;;;;;4982457;28;20043;-91
2023/06/20 07:00:23;;;;;;;18.67;14.05;;;;;;;;;;4982248;28;20054;-91
2023/06/20 07:02:49;;;;;;;49.05;14.95;;;;;;;;;;4963319;28;20107;-91
2023/06/20 07:05:15;;;;;;;16.17;12.45;;;;;;;;;;4980876;28;20057;-92
2023/06/20 07:07:44;;;;;;;21.40;12.88;;;;;;;;;;4967207;28;20072;-93
2023/06/20 07:10:13;;;;;;;17.13;12.80;;;;;;;;;;4982684;28;20520;-92
2023/06/20 07:12:39;;;;;;;23.30;12.70;;;;;;;;;;4982090;28;20074;-88
2023/06/20 07:15:05;;;;;;;26.83;13.98;;;;;;;;;;4979862;28;20235;-87
2023/06/20 07:17:31;;;;;;;19.00;12.65;;;;;;;;;;4965126;28;20046;-90
2023/06/20 07:19:57;;;;;;;15.93;12.05;;;;;;;;;;4980996;28;20054;-92
2023/06/20 07:22:24;;;;;;;16.67;12.88;;;;;;;;;;4979600;28;20076;-92
2023/06/20 07:24:50;;;;;;;19.38;12.05;;;;;;;;;;4982997;28;20035;-92
2023/06/20 07:27:16;;;;;;;17.58;12.48;;;;;;;;;;4965058;28;20038;-91
2023/06/20 07:29:54;;;;;;;17.42;12.13;;;;;;;;;;4964676;28;20050;-89
2023/06/20 07:32:20;;;;;;;13.05;11.18;;;;;;;;;;4965114;28;20046;-90
2023/06/20 07:34:46;;;;;;;14.13;11.88;;;;;;;;;;4963020;28;20123;-89
2023/06/20 07:37:18;;;;;;;15.80;12.85;;;;;;;;;;4979825;28;20046;-91
2023/06/20 07:39:47;;;;;;;18.65;12.75;;;;;;;;;;4978188;28;20111;-89
2023/06/20 07:42:14;;;;;;;21.60;12.32;;;;;;;;;;4985358;28;20102;-92
2023/06/20 07:44:40;;;;;;;25.52;12.85;;;;;;;;;;4963481;28;20038;-92
2023/06/20 07:47:06;;;;;;;33.33;12.93;;;;;;;;;;4975070;28;20672;-89
2023/06/20 07:49:32;;;;;;;15.48;11.98;;;;;;;;;;4979868;28;20184;-89
2023/06/20 07:51:59;;;;;;;15.60;11.38;;;;;;;;;;4963179;28;20077;-88
2023/06/20 07:54:25;;;;;;;27.25;12.07;;;;;;;;;;4948394;28;20066;-92
2023/06/20 07:56:51;;;;;;;15.68;12.02;;;;;;;;;;4979968;28;20046;-89
2023/06/20 07:59:19;;;;;;;15.23;11.73;;;;;;;;;;4973454;28;20501;-92
2023/06/20 08:01:50;;;;;;;14.80;12.27;;;;;;;;;;4962626;28;20116;-91
2023/06/20 08:04:16;;;;;;;15.57;12.60;;;;;;;;;;4965642;28;20047;-90
2023/06/20 08:06:42;;;;;;;16.80;11.63;;;;;;;;;;4979490;28;20497;-91
2023/06/20 08:09:08;;;;;;;17.10;12.43;;;;;;;;;;4963808;28;20130;-90
2023/06/20 08:11:38;;;;;;;15.93;12.35;;;;;;;;;;4981967;28;20409;-90
2023/06/20 08:14:06;;;;;;;31.08;12.38;;;;;;;;;;4978914;28;20105;-93
2023/06/20 08:16:32;;;;;;;15.48;10.98;;;;;;;;;;4959498;28;20046;-90
2023/06/20 08:18:58;;;;;;;20.23;11.50;;;;;;;;;;4962998;28;20092;-89
2023/06/20 08:21:24;;;;;;;16.67;11.63;;;;;;;;;;4962989;28;20513;-90
2023/06/20 08:23:56;;;;;;;14.50;11.93;;;;;;;;;;4957952;28;20059;-91
2023/06/20 08:26:22;;;;;;;13.45;11.45;;;;;;;;;;4976547;28;20081;-91
2023/06/20 08:28:54;;;;;;;15.00;11.00;;;;;;;;;;4982591;28;20054;-90
2023/06/20 08:31:23;;;;;;;15.35;11.27;;;;;;;;;;4984956;28;20043;-91
2023/06/20 08:33:49;;;;;;;14.63;11.15;;;;;;;;;;4979089;28;20054;-90
2023/06/20 08:36:21;;;;;;;12.63;11.32;;;;;;;;;;4962234;28;20047;-90
2023/06/20 08:39:08;;;;;;;17.58;11.70;;;;;;;;;;4965832;28;20066;-92
2023/06/20 08:41:39;;;;;;;14.73;11.63;;;;;;;;;;4962832;28;20053;-89
2023/06/20 08:44:05;;;;;;;16.42;11.27;;;;;;;;;;4964686;28;20042;-89
2023/06/20 08:46:31;;;;;;;12.48;10.57;;;;;;;;;;4963972;28;20418;-94
2023/06/20 08:49:07;;;;;;;20.10;10.82;;;;;;;;;;4964506;28;20060;-89
2023/06/20 08:51:36;;;;;;;17.98;10.88;;;;;;;;;;4963706;28;20050;-87
2023/06/20 08:54:03;;;;;;;18.85;10.68;;;;;;;;;;4981379;28;20142;-88
2023/06/20 08:56:32;;;;;;;13.98;9.98;;;;;;;;;;4961429;28;20050;-89
2023/06/20 08:58:58;;;;;;;12.27;10.25;;;;;;;;;;4979795;28;20462;-90
2023/06/20 09:01:24;;;;;;;14.00;9.30;;;;;;;;;;4963266;28;20045;-92
2023/06/20 09:03:54;;;;;;;10.75;9.40;;;;;;;;;;4977973;28;20108;-89
2023/06/20 09:06:31;;;;;;;14.60;10.85;;;;;;;;;;4976647;28;20042;-93
2023/06/20 09:08:57;;;;;;;12.68;9.50;;;;;;;;;;4963187;28;20104;-90
2023/06/20 09:11:25;;;;;;;11.63;8.18;;;;;;;;;;4978793;28;20046;-91
2023/06/20 09:13:51;;;;;;;11.23;8.20;;;;;;;;;;4975235;28;20061;-89
2023/06/20 09:16:19;;;;;;;9.80;8.20;;;;;;;;;;4973726;28;20046;-89
2023/06/20 09:18:50;;;;;;;11.18;8.05;;;;;;;;;;4973075;28;20038;-88
2023/06/20 09:21:16;;;;;;;10.25;8.10;;;;;;;;;;4983605;28;20046;-89
2023/06/20 09:23:42;;;;;;;12.38;7.28;;;;;;;;;;4974419;28;20138;-90
2023/06/20 09:26:18;;;;;;;9.48;6.90;;;;;;;;;;4979909;28;20103;-87
2023/06/20 09:28:44;;;;;;;13.93;8.77;;;;;;;;;;4983693;28;20054;-90
2023/06/20 09:31:10;;;;;;;16.45;7.97;;;;;;;;;;4964302;28;20520;-92
2023/06/20 09:33:37;;;;;;;12.73;7.82;;;;;;;;;;4981360;28;20081;-87
2023/06/20 09:36:16;;;;;;;11.75;7.28;;;;;;;;;;4979691;28;20586;-91
2023/06/20 09:38:43;;;;;;;41.47;8.73;;;;;;;;;;4965698;28;20046;-87
2023/06/20 09:41:09;;;;;;;9.27;6.75;;;;;;;;;;4980999;28;20077;-89
2023/06/20 09:43:35;;;;;;;15.15;7.20;;;;;;;;;;4958494;28;20490;-89
2023/06/20 09:46:04;;;;;;;9.43;7.63;;;;;;;;;;4965368;28;20204;-89
2023/06/20 09:48:32;;;;;;;11.18;7.57;;;;;;;;;;4980860;28;20572;-88
2023/06/20 09:50:58;;;;;;;13.68;7.70;;;;;;;;;;4979508;28;20519;-90
2023/06/20 09:53:29;;;;;;;10.43;7.07;;;;;;;;;;4962105;28;20114;-89
2023/06/20 09:55:59;;;;;;;9.80;8.13;;;;;;;;;;4973704;28;20533;-89
2023/06/20 09:58:25;;;;;;;11.23;8.60;;;;;;;;;;4963141;28;20055;-90
2023/06/20 10:00:55;;;;;;;9.55;8.45;;;;;;;;;;4978809;28;20053;-89
2023/06/20 10:03:22;;;;;;;13.05;8.77;;;;;;;;;;4963019;28;20057;-87
2023/06/20 10:05:48;;;;;;;10.00;8.43;;;;;;;;;;4981080;28;20117;-90
2023/06/20 10:08:17;;;;;;;10.18;8.35;;;;;;;;;;4981321;28;20050;-86
2023/06/20 10:10:43;;;;;;;13.80;9.13;;;;;;;;;;4962959;28;20050;-89
2023/06/20 10:13:12;;;;;;;9.40;8.40;;;;;;;;;;4962433;28;20058;-91
2023/06/20 10:15:41;;;;;;;14.35;7.00;;;;;;;;;;4976986;28;20379;-89
2023/06/20 10:18:18;;;;;;;10.85;7.35;;;;;;;;;;4979310;28;20050;-89
2023/06/20 10:20:44;;;;;;;13.20;8.57;;;;;;;;;;4962458;28;20052;-91
2023/06/20 10:23:13;;;;;;;9.93;7.65;;;;;;;;;;4962282;28;20809;-91
2023/06/20 10:25:52;;;;;;;9.68;7.82;;;;;;;;;;4960840;28;20057;-91
2023/06/20 10:28:24;;;;;;;10.13;8.20;;;;;;;;;;4968920;28;20050;-91
2023/06/20 10:30:52;;;;;;;9.27;7.55;;;;;;;;;;4957767;28;20042;-89
2023/06/20 10:33:24;;;;;;;13.38;7.30;;;;;;;;;;4978669;28;20180;-90
2023/06/20 10:35:57;;;;;;;11.18;8.02;;;;;;;;;;4978622;28;20102;-90
2023/06/20 10:38:31;;;;;;;8.25;6.55;;;;;;;;;;4982095;28;20518;-88
2023/06/20 10:41:16;;;;;;;9.38;6.93;;;;;;;;;;4983962;28;20078;-91
2023/06/20 10:44:01;;;;;;;10.02;7.25;;;;;;;;;;4980855;28;20085;-93
2023/06/20 10:46:46;;;;;;;8.18;7.28;;;;;;;;;;4962787;28;20579;-92
2023/06/20 10:49:12;;;;;;;10.63;7.75;;;;;;;;;;4958150;28;20397;-92
2023/06/20 10:51:44;;;;;;;10.35;7.93;;;;;;;;;;4961361;28;20457;-91
2023/06/20 10:54:14;;;;;;;8.55;6.47;;;;;;;;;;4959331;28;20055;-90
2023/06/20 10:56:40;;;;;;;10.35;6.97;;;;;;;;;;4958328;28;20061;-90
2023/06/20 10:59:11;;;;;;;9.38;5.40;;;;;;;;;;4977839;28;20049;-91
2023/06/20 11:01:37;;;;;;;7.65;5.55;;;;;;;;;;4963085;28;20054;-90
2023/06/20 11:04:07;;;;;;;8.70;5.65;;;;;;;;;;4980475;28;20062;-89
2023/06/20 11:06:36;;;;;;;9.57;4.95;;;;;;;;;;4964570;28;20118;-91
2023/06/20 11:09:02;;;;;;;8.18;5.10;;;;;;;;;;4977177;28;20049;-93
2023/06/20 11:11:37;;;;;;;7.50;5.20;;;;;;;;;;4961956;28;20046;-89
2023/06/20 11:14:12;;;;;;;6.30;5.10;;;;;;;;;;4965413;28;20115;-91
2023/06/20 11:16:44;;;;;;;6.85;6.07;;;;;;;;;;4975536;28;20058;-91
2023/06/20 11:19:10;;;;;;;6.22;5.63;;;;;;;;;;4965571;28;20244;-89
2023/06/20 11:21:36;;;;;;;8.07;5.72;;;;;;;;;;4977729;28;20476;-90
2023/06/20 11:24:03;;;;;;;6.65;6.00;;;;;;;;;;4973941;28;20157;-92
2023/06/20 11:26:32;;;;;;;8.52;6.53;;;;;;;;;;4993235;28;20038;-89
2023/06/20 11:28:59;;;;;;;13.93;6.85;;;;;;;;;;4962264;28;20093;-90
2023/06/20 11:31:25;;;;;;;12.10;6.50;;;;;;;;;;4963011;28;20130;-91
2023/06/20 11:34:02;;;;;;;9.15;6.75;;;;;;;;;;4977776;28;20070;-89
2023/06/20 11:36:31;;;;;;;10.82;6.63;;;;;;;;;;4966328;28;20387;-89
2023/06/20 11:38:58;;;;;;;16.45;6.47;;;;;;;;;;4962146;28;20561;-88
2023/06/20 11:41:32;;;;;;;14.73;6.00;;;;;;;;;;4979819;28;20042;-91
2023/06/20 11:44:01;;;;;;;6.72;5.95;;;;;;;;;;4983189;28;20381;-89
2023/06/20 11:46:28;;;;;;;6.28;5.03;;;;;;;;;;4965050;28;20049;-90
2023/06/20 11:48:57;;;;;;;7.03;4.95;;;;;;;;;;4977446;28;20050;-90
2023/06/20 11:51:29;;;;;;;10.18;5.15;;;;;;;;;;4976856;28;20121;-89
2023/06/20 11:54:02;;;;;;;5.80;4.80;;;;;;;;;;4981323;28;20042;-88
2023/06/20 11:56:31;;;;;;;7.78;4.85;;;;;;;;;;4964212;28;20050;-90
2023/06/20 11:58:58;;;;;;;8.73;5.45;;;;;;;;;;4981666;28;20498;-92
2023/06/20 12:01:25;;;;;;;12.45;5.32;;;;;;;;;;4956016;28;20046;-89
2023/06/20 12:04:14;;;;;;;7.53;4.80;;;;;;;;;;4962627;28;20050;-89
2023/06/20 12:07:03;;;;;;;4.93;4.43;;;;;;;;;;4965717;28;20055;-90
2023/06/20 12:09:40;;;;;;;8.55;5.00;;;;;;;;;;4978810;28;20053;-90
2023/06/20 12:12:07;;;;;;;7.78;4.75;;;;;;;;;;4963505;28;20137;-90
2023/06/20 12:14:37;;;;;;;8.95;4.90;;;;;;;;;;4962085;28;20100;-89
2023/06/20 12:17:06;;;;;;;8.60;4.85;;;;;;;;;;4974163;28;20116;-88
2023/06/20 12:19:32;;;;;;;7.68;4.53;;;;;;;;;;4975978;28;20050;-86
2023/06/20 12:22:04;;;;;;;20.20;5.03;;;;;;;;;;4980072;28;20375;-90
2023/06/20 12:24:36;;;;;;;6.45;4.78;;;;;;;;;;4961206;28;20053;-88
2023/06/20 12:27:03;;;;;;;6.10;5.50;;;;;;;;;;4966547;28;20133;-88
2023/06/20 12:29:35;;;;;;;7.80;5.20;;;;;;;;;;4963642;28;20054;-90
2023/06/20 12:32:05;;;;;;;8.57;5.57;;;;;;;;;;4981015;28;20039;-91
2023/06/20 12:34:31;;;;;;;12.15;5.70;;;;;;;;;;4963460;28;20501;-89
2023/06/20 12:37:00;;;;;;;7.65;5.60;;;;;;;;;;4957714;28;20487;-90
2023/06/20 12:39:32;;;;;;;11.35;6.30;;;;;;;;;;4977748;28;20425;-93
2023/06/20 12:41:58;;;;;;;10.25;5.70;;;;;;;;;;4964311;28;20050;-92
2023/06/20 12:44:50;;;;;;;7.25;5.40;;;;;;;;;;4964026;28;20069;-93
2023/06/20 12:47:16;;;;;;;6.45;5.57;;;;;;;;;;4962094;28;20493;-94
2023/06/20 12:49:43;;;;;;;7.07;5.32;;;;;;;;;;4971068;28;20067;-94
2023/06/20 12:52:09;;;;;;;6.85;4.95;;;;;;;;;;4967720;28;20073;-93
2023/06/20 12:54:38;;;;;;;8.82;5.75;;;;;;;;;;4966939;28;20054;-95
2023/06/20 12:57:05;;;;;;;6.72;4.90;;;;;;;;;;4967333;28;20425;-93
2023/06/20 12:59:34;;;;;;;5.55;4.45;;;;;;;;;;4967146;28;20304;-93
2023/06/20 13:02:00;;;;;;;7.82;4.50;;;;;;;;;;4967638;28;20042;-93
2023/06/20 13:04:26;;;;;;;6.35;4.57;;;;;;;;;;4972323;28;20060;-93
2023/06/20 13:06:52;;;;;;;4.93;4.10;;;;;;;;;;4973912;28;20083;-95
2023/06/20 13:09:18;;;;;;;4.70;4.25;;;;;;;;;;4965775;28;20042;-91
2023/06/20 13:11:44;;;;;;;6.97;4.35;;;;;;;;;;4985441;28;20053;-93
2023/06/20 13:14:10;;;;;;;25.70;5.60;;;;;;;;;;4975467;28;20073;-94
2023/06/20 13:16:37;;;;;;;10.45;4.97;;;;;;;;;;4976468;28;20057;-95
2023/06/20 13:19:03;;;;;;;8.93;5.20;;;;;;;;;;4982520;28;20157;-91
2023/06/20 13:21:30;;;;;;;7.05;4.97;;;;;;;;;;4986067;28;20058;-94
2023/06/20 13:23:56;;;;;;;5.60;4.57;;;;;;;;;;4967105;28;20081;-95
2023/06/20 13:26:25;;;;;;;4.78;4.13;;;;;;;;;;4985039;28;20049;-92
2023/06/20 13:28:51;;;;;;;5.97;4.18;;;;;;;;;;4985722;28;20495;-96
2023/06/20 13:31:17;;;;;;;7.13;4.97;;;;;;;;;;4973466;28;20052;-94
2023/06/20 13:33:43;;;;;;;21.15;5.22;;;;;;;;;;4974081;28;20058;-95
2023/06/20 13:36:10;;;;;;;8.32;4.85;;;;;;;;;;4970597;28;20359;-94
2023/06/20 13:38:40;;;;;;;6.85;4.65;;;;;;;;;;4997851;28;20147;-95
2023/06/20 13:41:07;;;;;;;9.40;4.90;;;;;;;;;;4988058;28;20185;-94
2023/06/20 13:43:33;;;;;;;5.10;4.60;;;;;;;;;;4971864;28;20046;-95
2023/06/20 13:45:59;;;;;;;6.82;5.38;;;;;;;;;;4990861;28;20037;-95
2023/06/20 13:48:25;;;;;;;6.68;4.82;;;;;;;;;;4992452;28;20034;-94
2023/06/20 13:50:51;;;;;;;8.38;5.43;;;;;;;;;;4986525;28;20042;-93
2023/06/20 13:53:21;;;;;;;7.43;5.22;;;;;;;;;;4967065;28;20039;-94
2023/06/20 13:55:47;;;;;;;9.27;5.60;;;;;;;;;;4971758;28;20090;-92
2023/06/20 13:58:13;;;;;;;7.60;5.40;;;;;;;;;;4986319;28;20042;-94
2023/06/20 14:00:39;;;;;;;7.32;5.20;;;;;;;;;;4988700;28;20050;-94
2023/06/20 14:03:05;;;;;;;5.68;4.93;;;;;;;;;;4987957;28;20042;-95
2023/06/20 14:05:37;;;;;;;7.00;5.07;;;;;;;;;;4985275;28;20052;-94
2023/06/20 14:08:03;;;;;;;9.45;5.05;;;;;;;;;;4978503;28;20267;-95
2023/06/20 14:10:33;;;;;;;8.15;5.28;;;;;;;;;;4991974;28;20154;-96
2023/06/20 14:12:59;;;;;;;6.95;4.78;;;;;;;;;;4976633;28;20042;-95
2023/06/20 14:15:27;;;;;;;10.95;5.13;;;;;;;;;;4976570;28;20042;-96
2023/06/20 14:17:55;;;;;;;8.32;4.63;;;;;;;;;;4974086;28;20053;-96
2023/06/20 14:20:26;;;;;;;5.35;4.63;;;;;;;;;;4986654;28;20456;-93
2023/06/20 14:22:52;;;;;;;11.52;5.22;;;;;;;;;;4975528;28;20053;-93
2023/06/20 14:25:18;;;;;;;5.78;5.20;;;;;;;;;;4972044;28;20046;-92
2023/06/20 14:27:44;;;;;;;6.25;5.20;;;;;;;;;;4972807;28;20075;-91
2023/06/20 14:30:11;;;;;;;7.38;5.45;;;;;;;;;;4973068;28;20084;-92
2023/06/20 14:32:37;;;;;;;6.13;5.53;;;;;;;;;;4987827;28;20046;-91